Startpagina
METAR-TAF:

METAR-TAF

Vliegvelden :

Alice Springs, Australië

breedte: 23-48S, lengte: 133-53E, hoogte: 545 m

Actueel weer

Dit bericht is 32 minuten geleden gemaakt, om 05:30 UTC
Wind 11 kt uit het oostzuidoosten
Temperatuur 28°C
Vochtigheid 20%
Druk 1017 hPa
Zicht 10 km of meer

METAR: YBAS 200530Z AUTO 12011KT 9999 // NCD 28/03 Q1017 RF00.0/000.0 PRESENT WEATHER SENSOR US

Tijdstip: 15:32 (06:02 UTC)

Verwachting

Dit bericht is 39 minuten geleden gemaakt, om 05:23 UTC
Verwachting geldig van 20 om 06 UTC tot 21 om 06 UTC
Wind 14 kt uit het zuidoosten
Zicht 10 km of meer
geen wolken onder 1500 m en geen cumulonimbus
Van 20 om 1000 UTC
Wind 5 kt uit het oostzuidoosten
Zicht 10 km of meer
geen wolken onder 1500 m en geen cumulonimbus
Van 21 om 0000 UTC
Wind 10 kt uit het oostzuidoosten
Zicht 10 km of meer
geen wolken onder 1500 m en geen cumulonimbus

TAF: YBAS 200523Z 2006/2106 13014KT CAVOK FM201000 11005KT CAVOK FM210000 11010KT CAVOK

Waarnemingen en weersverwachtingen van meer dan 4000 vliegvelden (METAR en TAF).

De beschikbare stations zijn de gele en rode punten op de kaart.

Ga met uw muis naar het station om de naam te zien.

Klik dan om waarnemingen en weersverwachtingen te zien.

kaart wijzigen: klik op de groene knoppen met een zwart kruis om in te zoomen, op de groene knop met een streepje om uit te zoomen of op de groene pijlen voor aangrenzende kaarten.


METAR-TAF: